Bitte eine E-Mail-Adresse für das Benutzerkonto eingeben. Ein Bestätigungscode wird dann an diese verschickt. Sobald der Code vorliegt, kann ein neues Passwort für das Benutzerkonto festgelegt werden.

WebCam

  
Kamera Halle
Kamera Vorfeld

GPS Triangle WM Sports Class

AeroClub Göppingen-Salach e.V.
Ausrichter der Modellflug
GPS Triangle-WM 2020

 

Aufgrund der aktuellen Corona Situation ist die WM auf den 15.8.-20.8.2021 verschoben
Wetter EDDS

METAR

EDDS 260650Z 07003KT CAVOK M04/M05 Q1023 NOSIG =
EDDS 260500Z 2606/2706 VRB02KT CAVOK PROB30 TEMPO 2700/2706 2500 BCFG


TAF

EDDS 260500Z 2606/2706 VRB02KT CAVOK PROB30 TEMPO 2700/2706 2500 BCFG =


SR/SS

06:46 / 15:31 UTC
(EDSO 26-11-2020)